Time;durP1;ratioP1;P1;durP2;ratioP2;P2;SDS_P1;SDS_P2;PMS_P1;PMS_P2;Temp;Humidity;BMP_temperature;BMP_pressure;BME280_temperature;BME280_humidity;BME280_pressure;Samples;Min_cycle;Max_cycle;Signal;HPM_P1;HPM_P2
2021/05/29 00:02:57;;;;;;;91.70;7.77;;;;;;;7.24;100.00;99001.13;3817515;77;44070;-22
2021/05/29 00:08:03;;;;;;;48.58;7.45;;;;;;;7.26;100.00;98996.97;3820788;77;44045;-23
2021/05/29 00:13:11;;;;;;;10.37;5.30;;;;;;;7.28;100.00;98995.52;3782245;78;43361;-22
2021/05/29 00:18:16;;;;;;;7.87;5.10;;;;;;;7.24;100.00;98992.22;3768396;78;43729;-22
2021/05/29 00:23:23;;;;;;;6.83;5.25;;;;;;;7.26;100.00;98987.59;3804051;77;44027;-22
2021/05/29 00:28:29;;;;;;;7.37;5.20;;;;;;;7.32;100.00;98986.23;3806039;77;44038;-22
2021/05/29 00:33:34;;;;;;;10.60;6.00;;;;;;;7.37;100.00;98986.72;3801365;77;43337;-22
2021/05/29 00:38:47;;;;;;;99.67;8.28;;;;;;;7.35;100.00;98978.78;3800441;77;44063;-23
2021/05/29 00:43:48;;;;;;;25.70;6.10;;;;;;;7.30;100.00;98975.65;3797539;77;75373;-23
2021/05/29 00:48:54;;;;;;;77.95;7.62;;;;;;;7.26;100.00;98959.45;3801544;77;71188;-22
2021/05/29 00:54:00;;;;;;;120.73;8.80;;;;;;;7.27;100.00;98963.83;3802357;77;43374;-22
2021/05/29 00:59:07;;;;;;;24.33;4.90;;;;;;;7.25;100.00;98963.10;3804677;77;43490;-22
2021/05/29 01:04:13;;;;;;;7.87;4.93;;;;;;;7.23;100.00;98953.86;3786382;77;44076;-23
2021/05/29 01:09:19;;;;;;;7.73;5.13;;;;;;;7.23;100.00;98954.36;3786500;77;44207;-22
2021/05/29 01:14:25;;;;;;;7.22;5.50;;;;;;;7.25;100.00;98955.06;3786810;77;70035;-22
2021/05/29 01:19:32;;;;;;;8.27;5.87;;;;;;;7.19;100.00;98959.09;3776629;77;43717;-22
2021/05/29 01:24:39;;;;;;;6.67;5.27;;;;;;;7.13;100.00;98960.95;3788625;77;43640;-23
2021/05/29 01:29:45;;;;;;;7.47;5.67;;;;;;;7.08;100.00;98962.68;3792328;77;44493;-22
2021/05/29 01:34:51;;;;;;;6.53;4.73;;;;;;;7.06;100.00;98962.42;3815725;77;42735;-24
2021/05/29 01:39:58;;;;;;;6.97;4.77;;;;;;;6.99;100.00;98959.42;3799451;77;42879;-25
2021/05/29 01:45:07;;;;;;;7.73;5.40;;;;;;;6.93;100.00;98948.72;3822593;77;44042;-25
2021/05/29 01:50:15;;;;;;;7.53;4.97;;;;;;;6.86;100.00;98946.16;3818150;77;44014;-25
2021/05/29 01:55:24;;;;;;;9.23;6.23;;;;;;;6.80;100.00;98948.01;3815515;77;44048;-25
2021/05/29 02:00:30;;;;;;;13.10;6.97;;;;;;;6.70;100.00;98947.89;3805841;77;43744;-25
2021/05/29 02:05:37;;;;;;;101.47;8.97;;;;;;;6.64;100.00;98947.06;3807503;77;43721;-25
2021/05/29 02:10:44;;;;;;;7.03;5.50;;;;;;;6.59;100.00;98956.77;3807427;77;43435;-25
2021/05/29 02:15:51;;;;;;;7.73;5.60;;;;;;;6.52;100.00;98959.58;3747658;78;43109;-26
2021/05/29 02:20:59;;;;;;;10.20;5.60;;;;;;;6.49;100.00;98955.80;3721385;79;43693;-25
2021/05/29 02:26:06;;;;;;;73.97;9.10;;;;;;;6.47;100.00;98959.08;3730582;79;44027;-25
2021/05/29 02:31:14;;;;;;;23.10;7.60;;;;;;;6.48;100.00;98954.97;3748755;78;43421;-25
2021/05/29 02:36:20;;;;;;;152.17;10.17;;;;;;;6.45;100.00;98949.02;3815943;76;43316;-24
2021/05/29 02:41:26;;;;;;;297.03;13.50;;;;;;;6.42;100.00;98955.44;3794572;77;43721;-25
2021/05/29 02:46:32;;;;;;;248.93;11.40;;;;;;;6.39;100.00;98958.84;3811484;76;43651;-25
2021/05/29 02:51:38;;;;;;;202.60;9.93;;;;;;;6.24;100.00;98976.47;3836847;76;44452;-20
2021/05/29 02:56:44;;;;;;;128.03;8.57;;;;;;;6.26;100.00;98973.70;3829126;77;44022;-20
2021/05/29 03:01:49;;;;;;;63.40;7.17;;;;;;;6.22;100.00;98978.91;3824612;76;44183;-20
2021/05/29 03:06:56;;;;;;;91.17;7.33;;;;;;;6.16;100.00;98983.78;3823708;76;44154;-21
2021/05/29 03:12:02;;;;;;;79.57;6.03;;;;;;;6.14;100.00;98987.06;3824693;77;43436;-20
2021/05/29 03:17:08;;;;;;;48.43;5.40;;;;;;;6.09;100.00;98995.91;3830838;76;44074;-19
2021/05/29 03:22:15;;;;;;;80.00;5.37;;;;;;;5.97;100.00;99000.83;3828400;76;43454;-19
2021/05/29 03:27:21;;;;;;;15.30;4.07;;;;;;;5.83;100.00;99002.73;3797364;77;43992;-20
2021/05/29 03:32:27;;;;;;;3.97;3.43;;;;;;;5.78;100.00;99011.61;3799602;77;44090;-19
2021/05/29 03:37:33;;;;;;;10.67;3.40;;;;;;;5.77;100.00;99021.94;3790764;77;44238;-20
2021/05/29 03:42:39;;;;;;;9.43;3.20;;;;;;;5.75;100.00;99016.34;3795266;77;44229;-20
2021/05/29 03:47:46;;;;;;;17.50;3.73;;;;;;;5.73;100.00;99031.64;3798056;77;44068;-20
2021/05/29 03:52:53;;;;;;;36.90;5.20;;;;;;;5.74;100.00;99022.66;3791548;77;43260;-20
2021/05/29 03:57:59;;;;;;;77.60;5.90;;;;;;;5.72;100.00;99026.77;3789805;77;43463;-20
2021/05/29 04:03:06;;;;;;;42.93;5.03;;;;;;;5.71;100.00;99025.05;3789694;77;44072;-20
2021/05/29 04:08:13;;;;;;;12.70;4.07;;;;;;;5.78;100.00;99024.98;3772173;77;44363;-20
2021/05/29 04:13:20;;;;;;;27.40;4.30;;;;;;;5.86;100.00;99031.93;3811354;77;43313;-20
2021/05/29 04:18:27;;;;;;;15.83;4.27;;;;;;;5.91;100.00;99027.56;3808498;77;43690;-21
2021/05/29 04:23:33;;;;;;;4.83;3.37;;;;;;;5.90;100.00;99029.03;3825610;77;43673;-20
2021/05/29 04:28:40;;;;;;;24.20;4.03;;;;;;;5.97;100.00;99036.95;3825862;76;44171;-20
2021/05/29 04:33:46;;;;;;;54.83;6.73;;;;;;;5.99;100.00;99039.92;3704803;78;43287;-21
2021/05/29 04:38:52;;;;;;;88.90;7.47;;;;;;;5.93;100.00;99036.83;3831105;77;44042;-21
2021/05/29 04:43:58;;;;;;;82.47;7.63;;;;;;;5.92;100.00;99041.30;3829538;76;43436;-21
2021/05/29 04:49:04;;;;;;;67.53;7.13;;;;;;;5.98;100.00;99039.98;3824777;77;44051;-21
2021/05/29 04:54:11;;;;;;;59.93;6.37;;;;;;;6.05;100.00;99049.30;3832108;77;43477;-20
2021/05/29 04:59:17;;;;;;;28.33;5.27;;;;;;;6.13;100.00;99045.55;3824339;76;44539;-21
2021/05/29 05:04:23;;;;;;;17.97;4.43;;;;;;;6.25;100.00;99050.92;3823093;76;44054;-21
2021/05/29 05:09:29;;;;;;;34.30;5.50;;;;;;;6.33;100.00;99057.87;3819945;77;43694;-20
2021/05/29 05:14:36;;;;;;;29.33;5.73;;;;;;;6.40;100.00;99059.12;3824524;76;43116;-21
2021/05/29 05:19:41;;;;;;;13.90;4.50;;;;;;;6.52;100.00;99063.98;3827331;76;44031;-21
2021/05/29 05:24:47;;;;;;;21.67;5.30;;;;;;;6.59;100.00;99071.05;3821727;77;44098;-21
2021/05/29 05:29:53;;;;;;;16.20;5.33;;;;;;;6.68;100.00;99066.31;3825447;76;43995;-21
2021/05/29 05:34:59;;;;;;;24.70;5.13;;;;;;;6.68;100.00;99064.97;3826352;77;43971;-21
2021/05/29 05:40:07;;;;;;;72.47;7.77;;;;;;;6.72;100.00;99071.80;3821559;77;44164;-21
2021/05/29 05:45:13;;;;;;;59.13;6.60;;;;;;;6.82;100.00;99068.39;3824263;76;44047;-20
2021/05/29 05:50:19;;;;;;;11.73;4.97;;;;;;;6.95;100.00;99075.83;3817493;76;75202;-20
2021/05/29 05:55:25;;;;;;;13.83;5.40;;;;;;;7.20;100.00;99080.56;3825841;77;44108;-20
2021/05/29 06:00:32;;;;;;;59.40;7.77;;;;;;;7.40;100.00;99082.98;3802389;76;44069;-20
2021/05/29 06:05:38;;;;;;;56.07;8.30;;;;;;;7.45;100.00;99086.13;3813989;77;43281;-21
2021/05/29 06:10:44;;;;;;;11.73;5.83;;;;;;;7.41;100.00;99091.36;3823304;76;43639;-20
2021/05/29 06:21:15;;;;;;;16.43;7.60;;;;;;;7.40;100.00;99102.58;3816564;76;43714;-20
2021/05/29 06:26:21;;;;;;;22.32;7.28;;;;;;;7.58;100.00;99111.94;3828309;77;75366;-20
2021/05/29 06:31:28;;;;;;;8.70;6.57;;;;;;;7.69;100.00;99116.80;3833865;76;43316;-20
2021/05/29 06:36:34;;;;;;;9.27;6.87;;;;;;;7.79;100.00;99116.04;3829520;77;43702;-22
2021/05/29 06:41:41;;;;;;;8.97;6.73;;;;;;;7.93;100.00;99122.47;3834547;76;43338;-20
2021/05/29 06:46:47;;;;;;;8.23;6.43;;;;;;;8.16;100.00;99121.88;3836904;76;44067;-20
2021/05/29 06:51:58;;;;;;;8.53;6.47;;;;;;;8.40;100.00;99122.13;3833177;76;69375;-20
2021/05/29 07:02:28;;;;;;;8.17;5.83;;;;;;;8.57;100.00;99116.69;3829951;76;43223;-20
2021/05/29 07:07:34;;;;;;;7.33;5.80;;;;;;;8.59;100.00;99120.10;3824550;77;44160;-20
2021/05/29 07:12:40;;;;;;;7.62;6.22;;;;;;;8.71;100.00;99122.72;3820788;77;43709;-20
2021/05/29 07:17:53;;;;;;;9.20;7.30;;;;;;;8.96;100.00;99128.16;3812989;76;44174;-19
2021/05/29 07:22:55;;;;;;;8.88;6.15;;;;;;;9.19;100.00;99130.19;3815362;76;43760;-22
2021/05/29 07:28:10;;;;;;;8.08;6.42;;;;;;;9.25;100.00;99125.59;3815809;76;44100;-21
2021/05/29 07:33:23;;;;;;;8.65;6.35;;;;;;;9.48;100.00;99132.11;3802228;77;27023;-22
2021/05/29 07:38:29;;;;;;;8.63;6.62;;;;;;;9.75;100.00;99127.94;3817909;77;43452;-21
2021/05/29 07:43:35;;;;;;;10.25;8.03;;;;;;;10.02;100.00;99134.00;3787996;76;44138;-22
2021/05/29 07:48:41;;;;;;;12.80;8.10;;;;;;;9.99;100.00;99138.34;3812031;77;42970;-22
2021/05/29 07:53:48;;;;;;;10.70;7.70;;;;;;;10.03;100.00;99136.21;3822493;77;44011;-22
2021/05/29 07:58:54;;;;;;;9.88;7.70;;;;;;;10.12;100.00;99143.44;3818583;76;44031;-22
2021/05/29 08:04:01;;;;;;;13.25;8.23;;;;;;;10.16;100.00;99143.52;3827353;77;43336;-21
2021/05/29 08:09:08;;;;;;;12.85;8.78;;;;;;;10.33;100.00;99137.06;3818523;77;43729;-22
2021/05/29 08:14:15;;;;;;;13.85;9.03;;;;;;;10.37;100.00;99137.62;3830891;76;44025;-22
2021/05/29 08:19:21;;;;;;;14.90;9.15;;;;;;;10.37;100.00;99147.91;3818823;77;42965;-21
2021/05/29 08:24:27;;;;;;;12.70;9.70;;;;;;;10.36;100.00;99142.17;3822243;76;43729;-22
2021/05/29 08:29:33;;;;;;;13.97;9.93;;;;;;;10.23;100.00;99153.72;3799048;77;43673;-22
2021/05/29 08:34:40;;;;;;;15.80;10.38;;;;;;;10.28;100.00;99151.47;3801706;77;43396;-25
2021/05/29 08:39:47;;;;;;;15.75;10.13;;;;;;;10.51;100.00;99155.25;3801766;76;44089;-25
2021/05/29 08:44:58;;;;;;;13.40;10.48;;;;;;;11.04;100.00;99149.84;3799932;77;43314;-27
2021/05/29 08:50:01;;;;;;;13.45;9.88;;;;;;;11.23;100.00;99153.81;3789672;77;43669;-26
2021/05/29 08:55:10;;;;;;;9.57;8.10;;;;;;;11.27;100.00;99141.38;3799981;77;73515;-25
2021/05/29 09:00:19;;;;;;;10.18;8.30;;;;;;;11.15;100.00;99144.27;3796917;77;44500;-25
2021/05/29 09:05:40;;;;;;;12.28;9.18;;;;;;;11.33;100.00;99142.13;3792722;77;43964;-26
2021/05/29 09:10:50;;;;;;;10.82;8.78;;;;;;;11.45;100.00;99138.23;3778161;77;44442;-26
2021/05/29 09:15:58;;;;;;;13.48;9.10;;;;;;;11.30;100.00;99144.62;3784573;77;43503;-25
2021/05/29 09:21:26;;;;;;;11.78;9.38;;;;;;;11.44;100.00;99141.09;3756699;78;43686;-25
2021/05/29 09:26:47;;;;;;;9.23;7.17;;;;;;;11.97;100.00;99130.91;3724907;79;44070;-26
2021/05/29 09:32:00;;;;;;;10.72;7.95;;;;;;;12.44;100.00;99134.41;3726964;79;43460;-26
2021/05/29 09:37:09;;;;;;;9.78;7.00;;;;;;;12.60;100.00;99132.34;3768943;78;43333;-26
2021/05/29 09:42:19;;;;;;;8.48;5.67;;;;;;;12.32;100.00;99131.95;3815580;77;44779;-26
2021/05/29 09:47:27;;;;;;;8.00;5.53;;;;;;;12.23;100.00;99136.09;3800584;77;43412;-26
2021/05/29 09:52:36;;;;;;;6.53;5.83;;;;;;;12.35;100.00;99130.78;3811827;77;43709;-26
2021/05/29 09:57:56;;;;;;;6.67;4.87;;;;;;;12.61;100.00;99126.80;3808271;77;43364;-26
2021/05/29 10:03:02;;;;;;;9.75;6.45;;;;;;;13.09;100.00;99124.56;3805165;77;43289;-26
2021/05/29 10:08:13;;;;;;;6.75;5.33;;;;;;;13.03;100.00;99121.65;3799357;77;44225;-26
2021/05/29 10:13:19;;;;;;;7.85;5.45;;;;;;;12.53;100.00;99114.55;3803763;77;43716;-26
2021/05/29 10:18:25;;;;;;;7.10;5.67;;;;;;;12.54;100.00;99123.00;3796630;77;43416;-26
2021/05/29 10:23:32;;;;;;;6.25;5.12;;;;;;;12.89;100.00;99126.63;3795716;77;43988;-26
2021/05/29 10:28:40;;;;;;;6.37;5.12;;;;;;;13.04;100.00;99124.70;3798047;77;44207;-26
2021/05/29 10:33:47;;;;;;;5.50;4.47;;;;;;;13.47;100.00;99122.08;3810650;77;42965;-27
2021/05/29 10:38:53;;;;;;;5.75;3.95;;;;;;;13.52;100.00;99124.64;3810659;76;44251;-25
2021/05/29 10:44:07;;;;;;;5.35;4.10;;;;;;;13.24;100.00;99129.39;3811858;76;43322;-25
2021/05/29 10:49:13;;;;;;;4.78;3.70;;;;;;;13.52;100.00;99116.52;3805783;77;44523;-26
2021/05/29 10:54:20;;;;;;;5.20;3.75;;;;;;;13.65;100.00;99119.27;3806324;77;43446;-25
2021/05/29 10:59:38;;;;;;;6.37;3.83;;;;;;;13.56;100.00;99123.31;3809918;76;44025;-25
2021/05/29 11:04:44;;;;;;;5.45;3.75;;;;;;;13.55;100.00;99122.97;3726497;79;44393;-25
2021/05/29 11:09:56;;;;;;;4.90;3.92;;;;;;;13.43;100.00;99113.45;3821649;76;43317;-25
2021/05/29 11:15:02;;;;;;;6.50;3.80;;;;;;;13.56;91.71;99116.55;3816410;76;44051;-26
2021/05/29 11:20:15;;;;;;;5.08;4.58;;;;;;;14.33;94.78;99109.24;3820228;77;44569;-28
2021/05/29 11:25:23;;;;;;;3.90;3.33;;;;;;;14.46;98.46;99097.91;3816203;76;43349;-25
2021/05/29 11:30:33;;;;;;;4.80;3.17;;;;;;;13.74;95.73;99102.03;3804231;77;43508;-26
2021/05/29 11:35:41;;;;;;;3.70;3.40;;;;;;;14.21;88.41;99098.39;3744261;79;43234;-26
2021/05/29 11:40:55;;;;;;;4.05;3.30;;;;;;;14.16;80.40;99107.03;3792248;77;43486;-27
2021/05/29 11:46:03;;;;;;;4.22;3.75;;;;;;;14.75;93.08;99101.48;3798066;77;43399;-27
2021/05/29 11:51:14;;;;;;;4.97;4.00;;;;;;;14.65;89.52;99099.39;3795229;78;44090;-27
2021/05/29 11:56:22;;;;;;;5.30;4.50;;;;;;;14.38;98.95;99105.53;3744481;78;43660;-26
2021/05/29 12:01:32;;;;;;;6.03;4.50;;;;;;;13.97;100.00;99108.18;3796477;78;43679;-26
2021/05/29 12:06:45;;;;;;;5.60;4.83;;;;;;;14.39;99.89;99104.52;3799867;78;44219;-26
2021/05/29 12:11:53;;;;;;;5.85;4.65;;;;;;;14.22;91.70;99109.57;3798679;78;43411;-25
2021/05/29 12:17:00;;;;;;;5.72;4.80;;;;;;;14.23;94.72;99103.14;3796099;77;44023;-26
2021/05/29 12:22:11;;;;;;;6.33;4.30;;;;;;;14.21;95.38;99094.33;3797630;77;43465;-27
2021/05/29 12:27:19;;;;;;;5.72;4.53;;;;;;;14.73;95.74;99087.73;3798287;77;43712;-26
2021/05/29 12:32:33;;;;;;;4.95;4.22;;;;;;;15.39;91.11;99077.53;3801733;77;43718;-27
2021/05/29 12:37:40;;;;;;;5.95;4.30;;;;;;;15.60;88.27;99082.03;3808998;76;44138;-26
2021/05/29 12:42:49;;;;;;;5.30;4.08;;;;;;;15.15;87.92;99075.77;3798118;77;43686;-27
2021/05/29 12:47:57;;;;;;;5.92;3.80;;;;;;;15.19;83.97;99088.48;3822553;76;43394;-27
2021/05/29 12:53:10;;;;;;;5.55;4.42;;;;;;;15.46;77.73;99086.34;3824829;76;44042;-26
2021/05/29 12:58:17;;;;;;;5.03;4.10;;;;;;;15.90;81.52;99083.08;3815092;76;43334;-27
2021/05/29 13:09:09;;;;;;;4.85;3.90;;;;;;;14.96;80.77;99087.88;3772415;76;42721;-26
2021/05/29 13:14:17;;;;;;;5.22;3.58;;;;;;;15.24;86.77;99087.42;3824138;77;44006;-26
2021/05/29 13:19:25;;;;;;;4.40;3.37;;;;;;;15.98;75.33;99087.63;3812476;76;43732;-26
2021/05/29 13:24:45;;;;;;;5.37;3.40;;;;;;;15.74;73.73;99085.84;3817722;76;44118;-26
2021/05/29 13:29:52;;;;;;;4.25;3.47;;;;;;;14.98;78.38;99083.12;3816873;77;44165;-26
2021/05/29 13:34:57;;;;;;;6.60;3.33;;;;;;;15.01;79.73;99090.06;3813751;77;44048;-26
2021/05/29 13:40:06;;;;;;;4.33;3.20;;;;;;;14.93;71.87;99083.61;3813484;77;43434;-26
2021/05/29 13:45:17;;;;;;;6.50;3.62;;;;;;;15.26;74.72;99079.96;3813514;77;44172;-26
2021/05/29 13:50:25;;;;;;;4.70;3.50;;;;;;;14.99;74.21;99086.66;3807326;76;42851;-26
2021/05/29 13:55:31;;;;;;;4.30;3.37;;;;;;;15.82;68.94;99073.08;3811585;76;43729;-27
2021/05/29 14:00:37;;;;;;;4.12;3.65;;;;;;;15.82;73.81;99077.15;3735637;79;44474;-26
2021/05/29 14:05:44;;;;;;;6.40;4.28;;;;;;;15.30;78.46;99080.45;3749441;78;43309;-26
2021/05/29 14:10:50;;;;;;;5.33;4.03;;;;;;;16.24;71.24;99079.10;3809590;76;43384;-26
2021/05/29 14:15:56;;;;;;;7.35;4.17;;;;;;;17.54;74.44;99070.80;3823386;77;44080;-27
2021/05/29 14:21:02;;;;;;;4.78;4.15;;;;;;;17.06;64.86;99075.30;3805398;76;43381;-27
2021/05/29 14:26:08;;;;;;;5.60;4.53;;;;;;;16.08;71.12;99079.21;3758828;77;43318;-27
2021/05/29 14:31:14;;;;;;;7.33;4.83;;;;;;;16.88;68.77;99077.83;3858736;76;44062;-27
2021/05/29 14:36:22;;;;;;;5.97;4.92;;;;;;;17.15;69.01;99083.70;3822832;77;42941;-26
2021/05/29 14:41:28;;;;;;;7.60;5.62;;;;;;;17.46;64.14;99080.45;3813010;77;44462;-26
2021/05/29 14:46:34;;;;;;;5.80;4.80;;;;;;;17.27;65.25;99085.95;3813041;77;44074;-26
2021/05/29 14:51:40;;;;;;;6.53;5.22;;;;;;;17.96;70.95;99084.70;3805934;77;43398;-26
2021/05/29 14:56:46;;;;;;;5.65;5.05;;;;;;;18.18;67.33;99089.69;3803397;77;44196;-26
2021/05/29 15:01:55;;;;;;;6.22;5.00;;;;;;;17.60;64.91;99094.57;3802639;76;43416;-26
2021/05/29 15:07:00;;;;;;;8.60;5.20;;;;;;;18.12;65.81;99087.22;3810800;76;43084;-26
2021/05/29 15:12:06;;;;;;;5.28;4.78;;;;;;;17.79;69.98;99093.13;3792906;77;43368;-26
2021/05/29 15:17:12;;;;;;;6.00;4.90;;;;;;;17.67;72.24;99099.58;3715503;79;44618;-26
2021/05/29 15:22:20;;;;;;;5.53;4.87;;;;;;;17.19;69.53;99104.59;3711178;79;44711;-27
2021/05/29 15:27:25;;;;;;;5.45;4.60;;;;;;;17.61;74.40;99096.77;3714190;79;44074;-26
2021/05/29 15:32:31;;;;;;;4.37;3.90;;;;;;;17.35;66.15;99103.55;3661311;79;43429;-27
2021/05/29 15:37:37;;;;;;;6.72;4.40;;;;;;;17.53;71.45;99099.08;3811701;77;44556;-25
2021/05/29 15:42:43;;;;;;;5.28;4.33;;;;;;;17.67;64.73;99105.02;3820050;76;44246;-25
2021/05/29 15:47:50;;;;;;;5.00;3.80;;;;;;;16.83;66.76;99115.66;3810050;77;43732;-24
2021/05/29 15:52:56;;;;;;;6.22;4.78;;;;;;;17.77;63.77;99099.78;3808266;77;44738;-24
2021/05/29 15:58:02;;;;;;;5.92;4.40;;;;;;;16.71;63.58;99106.25;3823609;76;44142;-25
2021/05/29 16:03:09;;;;;;;6.00;4.22;;;;;;;17.29;65.09;99111.13;3804720;76;42898;-25
2021/05/29 16:08:14;;;;;;;5.08;4.00;;;;;;;17.05;71.54;99110.36;3824187;77;44043;-24
2021/05/29 16:13:21;;;;;;;6.00;4.10;;;;;;;17.47;67.24;99111.57;3830488;76;44038;-24
2021/05/29 16:18:28;;;;;;;6.78;4.78;;;;;;;17.15;68.53;99115.02;3829720;77;43608;-25
2021/05/29 16:23:36;;;;;;;6.00;4.65;;;;;;;17.21;64.25;99114.28;3832031;77;43429;-24
2021/05/29 16:28:42;;;;;;;5.62;4.78;;;;;;;17.22;68.69;99113.25;3824828;77;44002;-24
2021/05/29 16:33:48;;;;;;;5.30;3.92;;;;;;;16.59;71.37;99118.94;3863113;76;44073;-24
2021/05/29 16:38:55;;;;;;;5.17;4.20;;;;;;;16.59;66.37;99118.94;3753669;78;43440;-24
2021/05/29 16:44:02;;;;;;;6.12;4.00;;;;;;;16.69;68.05;99120.05;3758799;78;44072;-24
2021/05/29 16:49:08;;;;;;;4.95;4.00;;;;;;;16.55;67.31;99114.88;3795133;77;43420;-24
2021/05/29 16:54:14;;;;;;;6.05;4.50;;;;;;;16.22;68.99;99128.73;3793222;77;43977;-24
2021/05/29 16:59:21;;;;;;;5.83;4.22;;;;;;;15.99;65.11;99121.93;3801364;77;43454;-24
2021/05/29 17:04:27;;;;;;;5.62;3.83;;;;;;;16.15;70.05;99117.73;3795079;77;44446;-24
2021/05/29 17:09:34;;;;;;;5.70;4.37;;;;;;;16.18;67.29;99117.87;3782427;77;44083;-24
2021/05/29 17:14:40;;;;;;;5.12;4.08;;;;;;;16.20;71.40;99121.27;3790692;77;43769;-24
2021/05/29 17:19:47;;;;;;;5.90;4.15;;;;;;;16.09;68.97;99127.98;3782302;77;44260;-24
2021/05/29 17:24:55;;;;;;;4.62;3.83;;;;;;;16.30;70.70;99140.90;3783992;77;43389;-24
2021/05/29 17:30:02;;;;;;;5.47;4.28;;;;;;;16.54;70.35;99140.91;3777804;77;44110;-25
2021/05/29 17:35:09;;;;;;;7.00;3.95;;;;;;;16.61;74.66;99141.36;3791594;77;43681;-24
2021/05/29 17:40:16;;;;;;;6.67;4.30;;;;;;;17.24;69.42;99147.09;3793964;77;43664;-23
2021/05/29 17:45:22;;;;;;;6.03;4.60;;;;;;;16.67;70.62;99147.08;3825848;77;44039;-24
2021/05/29 17:55:26;;;;;;;5.85;4.37;;;;;;;16.40;75.85;99146.64;4009558;73;30595;-23
2021/05/29 18:00:32;;;;;;;6.03;3.90;;;;;;;16.02;72.41;99156.38;3964115;73;44019;-24
2021/05/29 18:05:38;;;;;;;5.47;4.10;;;;;;;16.07;76.61;99158.56;3967449;73;44035;-23
2021/05/29 18:10:43;;;;;;;5.95;4.40;;;;;;;16.08;77.61;99153.47;3959297;73;43364;-23
2021/05/29 18:15:50;;;;;;;6.42;4.80;;;;;;;15.84;79.20;99159.83;3958890;73;43713;-24
2021/05/29 18:20:56;;;;;;;6.65;4.75;;;;;;;15.31;82.35;99166.30;3968205;73;44045;-24
2021/05/29 18:26:02;;;;;;;7.15;4.53;;;;;;;15.65;81.03;99163.32;3970279;73;44064;-23
2021/05/29 18:31:08;;;;;;;6.10;4.65;;;;;;;15.63;81.02;99169.95;3959914;73;44032;-23
2021/05/29 18:36:28;;;;;;;7.92;4.72;;;;;;;15.05;85.05;99170.95;3967450;73;43722;-24
2021/05/29 18:41:24;;;;;;;7.35;5.67;;;;;;;14.73;85.95;99184.88;3966596;73;43142;-23
2021/05/29 18:46:31;;;;;;;6.95;5.10;;;;;;;14.29;90.69;99176.98;3961598;73;43753;-24
2021/05/29 18:51:37;;;;;;;7.45;5.33;;;;;;;14.05;94.04;99184.57;3960665;73;43717;-23
2021/05/29 18:56:44;;;;;;;7.72;5.65;;;;;;;13.39;97.99;99183.30;3933309;74;43460;-23
2021/05/29 19:07:17;;;;;;;7.42;5.70;;;;;;;12.41;100.00;99186.92;3930225;74;43470;-23
2021/05/29 19:12:22;;;;;;;12.33;5.72;;;;;;;12.11;100.00;99200.29;3927170;73;44064;-26
2021/05/29 19:17:29;;;;;;;8.40;5.97;;;;;;;11.99;100.00;99200.50;3946834;73;44271;-25
2021/05/29 19:22:42;;;;;;;10.30;7.58;;;;;;;11.92;100.00;99214.23;3942937;74;43330;-25
2021/05/29 19:28:03;;;;;;;12.37;8.85;;;;;;;11.67;100.00;99219.81;3746737;74;411119;-25
2021/05/29 19:33:38;;;;;;;9.68;7.45;;;;;;;11.58;100.00;99231.02;3717303;79;43453;-25
2021/05/29 19:44:21;;;;;;;10.28;8.13;;;;;;;11.28;100.00;99238.34;3717180;78;44094;-23
2021/05/29 20:11:37;;;;;;;11.30;7.85;;;;;;;10.68;100.00;99262.30;3714085;78;44000;-26
2021/05/29 20:16:54;;;;;;;9.53;7.13;;;;;;;10.53;100.00;99274.48;3713219;78;44048;-26
2021/05/29 20:27:16;;;;;;;9.83;7.15;;;;;;;10.38;100.00;99251.14;3712474;78;43289;-25
2021/05/29 20:32:22;;;;;;;9.95;6.62;;;;;;;10.31;100.00;99253.03;3716839;78;44564;-26
2021/05/29 20:37:31;;;;;;;8.80;6.97;;;;;;;10.26;100.00;99249.05;3716701;79;43681;-25
2021/05/29 20:42:37;;;;;;;10.77;7.30;;;;;;;10.10;100.00;99257.16;3715503;78;75240;-25
2021/05/29 20:47:44;;;;;;;11.97;7.57;;;;;;;9.94;100.00;99258.16;3715233;79;75706;-26
2021/05/29 20:52:51;;;;;;;10.78;7.90;;;;;;;9.92;100.00;99260.16;3725808;78;43719;-25
2021/05/29 20:57:57;;;;;;;9.83;6.70;;;;;;;9.82;100.00;99262.80;3736189;79;43360;-26
2021/05/29 21:03:03;;;;;;;9.97;7.17;;;;;;;9.83;100.00;99258.62;3734047;79;72229;-25
2021/05/29 21:08:09;;;;;;;11.68;7.58;;;;;;;9.70;100.00;99265.59;3697102;79;43658;-25
2021/05/29 21:13:15;;;;;;;11.60;8.30;;;;;;;9.66;100.00;99271.38;3731104;79;43390;-22
2021/05/29 21:23:47;;;;;;;13.10;8.08;;;;;;;9.59;100.00;99284.52;3667290;80;43354;-23
2021/05/29 21:28:54;;;;;;;13.75;8.35;;;;;;;9.55;100.00;99280.38;3726177;79;44133;-22
2021/05/29 21:34:02;;;;;;;13.05;7.45;;;;;;;9.47;100.00;99290.96;3731003;79;44021;-22
2021/05/29 21:39:11;;;;;;;12.10;7.87;;;;;;;9.38;100.00;99293.94;3667904;80;43237;-23
2021/05/29 21:44:19;;;;;;;12.45;8.18;;;;;;;9.29;100.00;99298.77;3730940;79;44081;-24
2021/05/29 21:49:25;;;;;;;10.80;7.55;;;;;;;9.18;100.00;99297.86;3691311;79;43462;-22
2021/05/29 21:54:31;;;;;;;12.07;8.03;;;;;;;9.16;100.00;99294.44;3733114;79;44003;-22
2021/05/29 21:59:43;;;;;;;12.53;8.50;;;;;;;9.14;100.00;99291.53;3734993;79;44203;-23
2021/05/29 22:04:45;;;;;;;12.40;9.13;;;;;;;9.07;100.00;99301.95;3672703;80;43723;-23
2021/05/29 22:09:54;;;;;;;15.48;9.13;;;;;;;8.97;100.00;99299.69;3708091;79;44490;-23
2021/05/29 22:20:27;;;;;;;13.05;8.53;;;;;;;8.90;100.00;99301.53;3705915;79;43317;-22
2021/05/29 22:30:56;;;;;;;14.70;9.67;;;;;;;8.81;100.00;99304.16;3676385;80;75326;-23
2021/05/29 22:36:02;;;;;;;16.00;9.35;;;;;;;8.71;100.00;99302.72;3737413;79;43435;-22
2021/05/29 22:41:08;;;;;;;13.37;9.10;;;;;;;8.67;100.00;99307.97;3619652;82;44041;-22
2021/05/29 22:46:14;;;;;;;15.70;10.15;;;;;;;8.59;100.00;99310.81;3737700;79;43310;-22
2021/05/29 22:51:20;;;;;;;17.87;10.07;;;;;;;8.49;100.00;99301.81;3673501;80;44580;-22
2021/05/29 22:56:26;;;;;;;16.63;10.20;;;;;;;8.31;100.00;99307.66;3669814;79;44621;-21
2021/05/29 23:01:33;;;;;;;16.10;10.38;;;;;;;8.22;100.00;99308.41;3661967;80;44082;-23
2021/05/29 23:06:39;;;;;;;14.80;10.38;;;;;;;8.06;100.00;99298.06;3723723;79;43734;-22
2021/05/29 23:11:46;;;;;;;18.05;10.85;;;;;;;8.01;100.00;99305.15;3588798;81;43400;-22
2021/05/29 23:16:52;;;;;;;15.03;10.10;;;;;;;8.04;100.00;99299.17;3717578;79;77547;-22
2021/05/29 23:21:58;;;;;;;13.15;9.20;;;;;;;8.07;100.00;99299.78;3714575;79;43329;-22
2021/05/29 23:27:05;;;;;;;13.00;9.40;;;;;;;8.01;100.00;99298.44;3715427;78;75401;-22
2021/05/29 23:32:11;;;;;;;14.57;9.90;;;;;;;7.97;100.00;99296.97;3716982;78;43341;-21
2021/05/29 23:37:19;;;;;;;15.08;9.48;;;;;;;8.01;100.00;99295.76;3717196;78;44091;-21
2021/05/29 23:42:25;;;;;;;17.70;10.58;;;;;;;8.01;100.00;99293.08;3723478;78;42946;-23
2021/05/29 23:47:30;;;;;;;18.60;11.25;;;;;;;8.00;100.00;99296.73;3718097;79;44070;-23
2021/05/29 23:52:37;;;;;;;17.60;11.23;;;;;;;7.98;100.00;99303.20;3716959;79;43389;-23
2021/05/29 23:57:43;;;;;;;18.97;11.07;;;;;;;7.96;100.00;99303.81;3724514;78;43250;-23
